sensor_id;sensor_type;location;lat;lon;timestamp;P1;durP1;ratioP1;P2;durP2;ratioP2
37205;SDS011;23099;42.636;23.198;2022-12-18T00:02:04;5.30;;;1.50;;
37205;SDS011;23099;42.636;23.198;2022-12-18T00:04:31;5.97;;;1.85;;
37205;SDS011;23099;42.636;23.198;2022-12-18T00:06:59;5.85;;;1.50;;
37205;SDS011;23099;42.636;23.198;2022-12-18T00:09:25;4.93;;;1.65;;
37205;SDS011;23099;42.636;23.198;2022-12-18T00:11:52;5.22;;;1.88;;
37205;SDS011;23099;42.636;23.198;2022-12-18T00:14:19;5.03;;;1.70;;
37205;SDS011;23099;42.636;23.198;2022-12-18T00:16:46;7.03;;;2.22;;
37205;SDS011;23099;42.636;23.198;2022-12-18T00:19:13;6.63;;;2.42;;
37205;SDS011;23099;42.636;23.198;2022-12-18T00:21:41;6.57;;;1.77;;
37205;SDS011;23099;42.636;23.198;2022-12-18T00:24:10;5.68;;;1.45;;
37205;SDS011;23099;42.636;23.198;2022-12-18T00:26:38;4.65;;;1.58;;
37205;SDS011;23099;42.636;23.198;2022-12-18T00:29:07;5.25;;;1.92;;
37205;SDS011;23099;42.636;23.198;2022-12-18T00:31:38;5.15;;;2.10;;
37205;SDS011;23099;42.636;23.198;2022-12-18T00:34:06;4.77;;;1.87;;
37205;SDS011;23099;42.636;23.198;2022-12-18T00:36:33;5.63;;;2.30;;
37205;SDS011;23099;42.636;23.198;2022-12-18T00:39:01;3.67;;;1.50;;
37205;SDS011;23099;42.636;23.198;2022-12-18T00:41:31;4.85;;;1.95;;
37205;SDS011;23099;42.636;23.198;2022-12-18T00:44:15;6.47;;;2.78;;
37205;SDS011;23099;42.636;23.198;2022-12-18T00:46:43;6.63;;;2.58;;
37205;SDS011;23099;42.636;23.198;2022-12-18T00:49:11;5.60;;;2.30;;
37205;SDS011;23099;42.636;23.198;2022-12-18T00:51:38;6.47;;;2.80;;
37205;SDS011;23099;42.636;23.198;2022-12-18T00:54:05;5.95;;;2.50;;
37205;SDS011;23099;42.636;23.198;2022-12-18T00:56:33;6.38;;;3.05;;
37205;SDS011;23099;42.636;23.198;2022-12-18T00:59:01;8.60;;;2.92;;
37205;SDS011;23099;42.636;23.198;2022-12-18T01:01:28;7.00;;;2.80;;
37205;SDS011;23099;42.636;23.198;2022-12-18T01:03:58;6.13;;;2.80;;
37205;SDS011;23099;42.636;23.198;2022-12-18T01:06:26;7.57;;;3.55;;
37205;SDS011;23099;42.636;23.198;2022-12-18T01:08:52;7.78;;;3.78;;
37205;SDS011;23099;42.636;23.198;2022-12-18T01:11:19;6.10;;;2.67;;
37205;SDS011;23099;42.636;23.198;2022-12-18T01:13:48;7.22;;;3.10;;
37205;SDS011;23099;42.636;23.198;2022-12-18T01:16:16;7.28;;;2.50;;
37205;SDS011;23099;42.636;23.198;2022-12-18T01:18:43;7.03;;;2.85;;
37205;SDS011;23099;42.636;23.198;2022-12-18T01:21:11;6.07;;;2.70;;
37205;SDS011;23099;42.636;23.198;2022-12-18T01:23:39;7.13;;;3.00;;
37205;SDS011;23099;42.636;23.198;2022-12-18T01:26:06;7.00;;;3.03;;
37205;SDS011;23099;42.636;23.198;2022-12-18T01:28:34;7.72;;;3.22;;
37205;SDS011;23099;42.636;23.198;2022-12-18T01:31:12;9.40;;;3.63;;
37205;SDS011;23099;42.636;23.198;2022-12-18T01:33:41;8.45;;;3.58;;
37205;SDS011;23099;42.636;23.198;2022-12-18T01:36:08;8.45;;;4.00;;
37205;SDS011;23099;42.636;23.198;2022-12-18T01:38:40;8.25;;;3.38;;
37205;SDS011;23099;42.636;23.198;2022-12-18T01:41:08;7.65;;;3.55;;
37205;SDS011;23099;42.636;23.198;2022-12-18T01:43:44;9.00;;;3.83;;
37205;SDS011;23099;42.636;23.198;2022-12-18T01:46:15;9.38;;;4.15;;
37205;SDS011;23099;42.636;23.198;2022-12-18T01:48:43;7.85;;;3.30;;
37205;SDS011;23099;42.636;23.198;2022-12-18T01:51:11;7.63;;;3.35;;
37205;SDS011;23099;42.636;23.198;2022-12-18T01:53:39;7.90;;;3.47;;
37205;SDS011;23099;42.636;23.198;2022-12-18T01:56:07;8.02;;;3.38;;
37205;SDS011;23099;42.636;23.198;2022-12-18T01:58:39;8.77;;;3.72;;
37205;SDS011;23099;42.636;23.198;2022-12-18T02:01:12;8.68;;;4.10;;
37205;SDS011;23099;42.636;23.198;2022-12-18T02:03:41;10.88;;;4.25;;
37205;SDS011;23099;42.636;23.198;2022-12-18T02:06:10;8.63;;;4.28;;
37205;SDS011;23099;42.636;23.198;2022-12-18T02:08:42;8.65;;;3.97;;
37205;SDS011;23099;42.636;23.198;2022-12-18T02:11:19;8.55;;;3.70;;
37205;SDS011;23099;42.636;23.198;2022-12-18T02:13:55;8.38;;;3.83;;
37205;SDS011;23099;42.636;23.198;2022-12-18T02:16:33;7.43;;;3.53;;
37205;SDS011;23099;42.636;23.198;2022-12-18T02:19:10;7.78;;;3.90;;
37205;SDS011;23099;42.636;23.198;2022-12-18T02:21:49;10.18;;;3.63;;
37205;SDS011;23099;42.636;23.198;2022-12-18T02:24:26;7.45;;;3.55;;
37205;SDS011;23099;42.636;23.198;2022-12-18T02:27:02;6.45;;;3.00;;
37205;SDS011;23099;42.636;23.198;2022-12-18T02:29:31;19.00;;;6.32;;
37205;SDS011;23099;42.636;23.198;2022-12-18T02:32:02;13.43;;;5.40;;
37205;SDS011;23099;42.636;23.198;2022-12-18T02:34:33;10.15;;;3.97;;
37205;SDS011;23099;42.636;23.198;2022-12-18T02:37:04;8.30;;;3.28;;
37205;SDS011;23099;42.636;23.198;2022-12-18T02:39:35;9.88;;;3.90;;
37205;SDS011;23099;42.636;23.198;2022-12-18T02:42:05;8.75;;;3.55;;
37205;SDS011;23099;42.636;23.198;2022-12-18T02:44:33;7.95;;;3.63;;
37205;SDS011;23099;42.636;23.198;2022-12-18T02:47:00;9.02;;;3.75;;
37205;SDS011;23099;42.636;23.198;2022-12-18T02:49:30;8.20;;;4.00;;
37205;SDS011;23099;42.636;23.198;2022-12-18T02:52:09;11.18;;;4.90;;
37205;SDS011;23099;42.636;23.198;2022-12-18T02:54:55;8.82;;;4.25;;
37205;SDS011;23099;42.636;23.198;2022-12-18T02:57:30;11.13;;;4.68;;
37205;SDS011;23099;42.636;23.198;2022-12-18T03:00:04;10.15;;;3.85;;
37205;SDS011;23099;42.636;23.198;2022-12-18T03:02:36;9.27;;;3.75;;
37205;SDS011;23099;42.636;23.198;2022-12-18T03:05:07;7.78;;;3.28;;
37205;SDS011;23099;42.636;23.198;2022-12-18T03:07:40;10.23;;;3.47;;
37205;SDS011;23099;42.636;23.198;2022-12-18T03:10:13;7.28;;;3.45;;
37205;SDS011;23099;42.636;23.198;2022-12-18T03:12:45;7.80;;;3.67;;
37205;SDS011;23099;42.636;23.198;2022-12-18T03:15:19;8.27;;;3.35;;
37205;SDS011;23099;42.636;23.198;2022-12-18T03:17:51;7.40;;;3.13;;
37205;SDS011;23099;42.636;23.198;2022-12-18T03:20:22;6.45;;;2.90;;
37205;SDS011;23099;42.636;23.198;2022-12-18T03:22:53;7.90;;;3.22;;
37205;SDS011;23099;42.636;23.198;2022-12-18T03:25:24;7.45;;;2.80;;
37205;SDS011;23099;42.636;23.198;2022-12-18T03:27:55;8.90;;;3.75;;
37205;SDS011;23099;42.636;23.198;2022-12-18T03:30:25;9.27;;;3.03;;
37205;SDS011;23099;42.636;23.198;2022-12-18T03:32:56;7.03;;;2.85;;
37205;SDS011;23099;42.636;23.198;2022-12-18T03:35:29;7.18;;;2.42;;
37205;SDS011;23099;42.636;23.198;2022-12-18T03:37:59;8.27;;;2.92;;
37205;SDS011;23099;42.636;23.198;2022-12-18T03:40:26;5.30;;;2.35;;
37205;SDS011;23099;42.636;23.198;2022-12-18T03:43:02;8.10;;;2.00;;
37205;SDS011;23099;42.636;23.198;2022-12-18T03:45:34;7.00;;;2.30;;
37205;SDS011;23099;42.636;23.198;2022-12-18T03:48:04;7.75;;;2.78;;
37205;SDS011;23099;42.636;23.198;2022-12-18T03:50:37;5.55;;;2.30;;
37205;SDS011;23099;42.636;23.198;2022-12-18T03:53:14;6.38;;;2.10;;
37205;SDS011;23099;42.636;23.198;2022-12-18T03:55:49;7.15;;;2.42;;
37205;SDS011;23099;42.636;23.198;2022-12-18T03:58:20;7.07;;;2.22;;
37205;SDS011;23099;42.636;23.198;2022-12-18T04:00:50;5.60;;;2.10;;
37205;SDS011;23099;42.636;23.198;2022-12-18T04:03:21;5.97;;;2.00;;
37205;SDS011;23099;42.636;23.198;2022-12-18T04:08:17;9.55;;;3.42;;
37205;SDS011;23099;42.636;23.198;2022-12-18T04:10:45;8.38;;;2.97;;
37205;SDS011;23099;42.636;23.198;2022-12-18T04:13:12;6.97;;;2.25;;
37205;SDS011;23099;42.636;23.198;2022-12-18T04:15:40;5.95;;;2.00;;
37205;SDS011;23099;42.636;23.198;2022-12-18T04:20:33;9.23;;;3.35;;
37205;SDS011;23099;42.636;23.198;2022-12-18T04:23:00;7.13;;;2.90;;
37205;SDS011;23099;42.636;23.198;2022-12-18T04:25:27;8.57;;;3.45;;
37205;SDS011;23099;42.636;23.198;2022-12-18T04:27:53;6.10;;;2.85;;
37205;SDS011;23099;42.636;23.198;2022-12-18T04:30:20;5.43;;;2.33;;
37205;SDS011;23099;42.636;23.198;2022-12-18T04:32:48;5.05;;;2.17;;
37205;SDS011;23099;42.636;23.198;2022-12-18T04:35:15;9.05;;;3.60;;
37205;SDS011;23099;42.636;23.198;2022-12-18T04:37:42;9.18;;;4.70;;
37205;SDS011;23099;42.636;23.198;2022-12-18T04:40:09;7.28;;;3.55;;
37205;SDS011;23099;42.636;23.198;2022-12-18T04:42:36;5.95;;;2.30;;
37205;SDS011;23099;42.636;23.198;2022-12-18T04:45:03;11.18;;;5.10;;
37205;SDS011;23099;42.636;23.198;2022-12-18T04:47:30;31.02;;;14.93;;
37205;SDS011;23099;42.636;23.198;2022-12-18T04:49:58;9.73;;;5.03;;
37205;SDS011;23099;42.636;23.198;2022-12-18T04:52:25;9.23;;;4.15;;
37205;SDS011;23099;42.636;23.198;2022-12-18T04:54:52;9.32;;;4.00;;
37205;SDS011;23099;42.636;23.198;2022-12-18T04:57:18;6.97;;;2.97;;
37205;SDS011;23099;42.636;23.198;2022-12-18T04:59:45;9.30;;;3.30;;
37205;SDS011;23099;42.636;23.198;2022-12-18T05:02:12;7.63;;;3.08;;
37205;SDS011;23099;42.636;23.198;2022-12-18T05:04:39;8.57;;;3.72;;
37205;SDS011;23099;42.636;23.198;2022-12-18T05:07:07;8.20;;;3.20;;
37205;SDS011;23099;42.636;23.198;2022-12-18T05:09:33;9.57;;;3.80;;
37205;SDS011;23099;42.636;23.198;2022-12-18T05:12:00;8.43;;;3.17;;
37205;SDS011;23099;42.636;23.198;2022-12-18T05:14:27;10.88;;;4.07;;
37205;SDS011;23099;42.636;23.198;2022-12-18T05:16:54;9.13;;;3.38;;
37205;SDS011;23099;42.636;23.198;2022-12-18T05:19:21;8.25;;;3.38;;
37205;SDS011;23099;42.636;23.198;2022-12-18T05:21:47;9.80;;;3.78;;
37205;SDS011;23099;42.636;23.198;2022-12-18T05:24:15;8.93;;;3.33;;
37205;SDS011;23099;42.636;23.198;2022-12-18T05:26:42;8.18;;;3.30;;
37205;SDS011;23099;42.636;23.198;2022-12-18T05:29:09;11.63;;;3.50;;
37205;SDS011;23099;42.636;23.198;2022-12-18T05:31:37;11.02;;;3.20;;
37205;SDS011;23099;42.636;23.198;2022-12-18T05:34:04;10.10;;;4.45;;
37205;SDS011;23099;42.636;23.198;2022-12-18T05:36:30;10.45;;;3.80;;
37205;SDS011;23099;42.636;23.198;2022-12-18T05:38:57;8.13;;;3.03;;
37205;SDS011;23099;42.636;23.198;2022-12-18T05:41:26;10.40;;;3.40;;
37205;SDS011;23099;42.636;23.198;2022-12-18T05:46:20;8.15;;;3.05;;
37205;SDS011;23099;42.636;23.198;2022-12-18T05:48:47;8.60;;;4.00;;
37205;SDS011;23099;42.636;23.198;2022-12-18T05:51:15;8.95;;;4.05;;
37205;SDS011;23099;42.636;23.198;2022-12-18T05:53:44;11.18;;;4.03;;
37205;SDS011;23099;42.636;23.198;2022-12-18T05:56:12;9.73;;;4.03;;
37205;SDS011;23099;42.636;23.198;2022-12-18T05:58:42;10.63;;;4.78;;
37205;SDS011;23099;42.636;23.198;2022-12-18T06:01:10;9.85;;;4.00;;
37205;SDS011;23099;42.636;23.198;2022-12-18T06:03:40;10.20;;;4.38;;
37205;SDS011;23099;42.636;23.198;2022-12-18T06:06:12;9.60;;;4.03;;
37205;SDS011;23099;42.636;23.198;2022-12-18T06:08:40;10.05;;;3.92;;
37205;SDS011;23099;42.636;23.198;2022-12-18T06:11:06;10.23;;;4.57;;
37205;SDS011;23099;42.636;23.198;2022-12-18T06:13:33;10.32;;;4.00;;
37205;SDS011;23099;42.636;23.198;2022-12-18T06:16:02;10.02;;;4.38;;
37205;SDS011;23099;42.636;23.198;2022-12-18T06:18:29;9.32;;;3.90;;
37205;SDS011;23099;42.636;23.198;2022-12-18T06:20:56;10.13;;;4.07;;
37205;SDS011;23099;42.636;23.198;2022-12-18T06:23:24;10.63;;;4.75;;
37205;SDS011;23099;42.636;23.198;2022-12-18T06:25:51;10.10;;;4.90;;
37205;SDS011;23099;42.636;23.198;2022-12-18T06:28:18;10.07;;;4.90;;
37205;SDS011;23099;42.636;23.198;2022-12-18T06:30:45;10.20;;;5.20;;
37205;SDS011;23099;42.636;23.198;2022-12-18T06:33:14;11.82;;;5.07;;
37205;SDS011;23099;42.636;23.198;2022-12-18T06:35:42;11.95;;;5.43;;
37205;SDS011;23099;42.636;23.198;2022-12-18T06:38:08;9.52;;;4.65;;
37205;SDS011;23099;42.636;23.198;2022-12-18T06:40:36;11.38;;;4.78;;
37205;SDS011;23099;42.636;23.198;2022-12-18T06:43:03;10.45;;;5.32;;
37205;SDS011;23099;42.636;23.198;2022-12-18T06:45:30;11.40;;;4.63;;
37205;SDS011;23099;42.636;23.198;2022-12-18T06:47:57;14.50;;;5.07;;
37205;SDS011;23099;42.636;23.198;2022-12-18T06:50:25;10.20;;;4.68;;
37205;SDS011;23099;42.636;23.198;2022-12-18T06:52:52;11.25;;;4.85;;
37205;SDS011;23099;42.636;23.198;2022-12-18T06:55:19;11.80;;;5.18;;
37205;SDS011;23099;42.636;23.198;2022-12-18T06:57:45;11.63;;;4.93;;
37205;SDS011;23099;42.636;23.198;2022-12-18T07:00:12;11.00;;;5.20;;
37205;SDS011;23099;42.636;23.198;2022-12-18T07:02:39;11.88;;;5.35;;
37205;SDS011;23099;42.636;23.198;2022-12-18T07:05:06;14.18;;;6.22;;
37205;SDS011;23099;42.636;23.198;2022-12-18T07:07:35;12.80;;;5.90;;
37205;SDS011;23099;42.636;23.198;2022-12-18T07:10:01;11.25;;;5.38;;
37205;SDS011;23099;42.636;23.198;2022-12-18T07:12:28;10.00;;;4.50;;
37205;SDS011;23099;42.636;23.198;2022-12-18T07:14:55;11.52;;;4.80;;
37205;SDS011;23099;42.636;23.198;2022-12-18T07:17:22;11.35;;;4.65;;
37205;SDS011;23099;42.636;23.198;2022-12-18T07:19:48;11.48;;;5.15;;
37205;SDS011;23099;42.636;23.198;2022-12-18T07:22:15;11.30;;;4.60;;
37205;SDS011;23099;42.636;23.198;2022-12-18T07:24:43;11.10;;;4.68;;
37205;SDS011;23099;42.636;23.198;2022-12-18T07:27:10;10.50;;;4.63;;
37205;SDS011;23099;42.636;23.198;2022-12-18T07:29:36;10.63;;;4.82;;
37205;SDS011;23099;42.636;23.198;2022-12-18T07:32:03;10.38;;;4.05;;
37205;SDS011;23099;42.636;23.198;2022-12-18T07:34:32;10.38;;;4.70;;
37205;SDS011;23099;42.636;23.198;2022-12-18T07:36:58;10.50;;;4.60;;
37205;SDS011;23099;42.636;23.198;2022-12-18T07:39:25;11.00;;;5.22;;
37205;SDS011;23099;42.636;23.198;2022-12-18T07:41:53;10.35;;;4.78;;
37205;SDS011;23099;42.636;23.198;2022-12-18T07:44:34;13.60;;;4.80;;
37205;SDS011;23099;42.636;23.198;2022-12-18T07:47:00;10.50;;;4.32;;
37205;SDS011;23099;42.636;23.198;2022-12-18T07:49:27;12.50;;;5.03;;
37205;SDS011;23099;42.636;23.198;2022-12-18T07:51:54;11.77;;;4.93;;
37205;SDS011;23099;42.636;23.198;2022-12-18T07:54:21;10.55;;;4.53;;
37205;SDS011;23099;42.636;23.198;2022-12-18T07:56:48;13.50;;;5.15;;
37205;SDS011;23099;42.636;23.198;2022-12-18T07:59:16;13.20;;;5.07;;
37205;SDS011;23099;42.636;23.198;2022-12-18T08:01:43;12.02;;;4.65;;
37205;SDS011;23099;42.636;23.198;2022-12-18T08:04:10;12.13;;;5.45;;
37205;SDS011;23099;42.636;23.198;2022-12-18T08:06:37;11.98;;;4.75;;
37205;SDS011;23099;42.636;23.198;2022-12-18T08:09:04;12.80;;;5.65;;
37205;SDS011;23099;42.636;23.198;2022-12-18T08:11:30;15.18;;;5.18;;
37205;SDS011;23099;42.636;23.198;2022-12-18T08:13:57;14.23;;;6.10;;
37205;SDS011;23099;42.636;23.198;2022-12-18T08:16:25;13.63;;;5.55;;
37205;SDS011;23099;42.636;23.198;2022-12-18T08:18:52;12.38;;;5.68;;
37205;SDS011;23099;42.636;23.198;2022-12-18T08:21:21;12.77;;;5.73;;
37205;SDS011;23099;42.636;23.198;2022-12-18T08:23:49;15.75;;;6.28;;
37205;SDS011;23099;42.636;23.198;2022-12-18T08:26:17;15.23;;;6.10;;
37205;SDS011;23099;42.636;23.198;2022-12-18T08:28:43;12.98;;;6.15;;
37205;SDS011;23099;42.636;23.198;2022-12-18T08:31:10;13.85;;;6.57;;
37205;SDS011;23099;42.636;23.198;2022-12-18T08:33:40;12.98;;;5.97;;
37205;SDS011;23099;42.636;23.198;2022-12-18T08:36:08;13.50;;;5.97;;
37205;SDS011;23099;42.636;23.198;2022-12-18T08:38:36;15.30;;;6.90;;
37205;SDS011;23099;42.636;23.198;2022-12-18T08:41:03;12.57;;;5.88;;
37205;SDS011;23099;42.636;23.198;2022-12-18T08:43:31;13.52;;;5.85;;
37205;SDS011;23099;42.636;23.198;2022-12-18T08:46:15;15.45;;;7.72;;
37205;SDS011;23099;42.636;23.198;2022-12-18T08:48:44;19.42;;;8.27;;
37205;SDS011;23099;42.636;23.198;2022-12-18T08:53:37;17.63;;;7.28;;
37205;SDS011;23099;42.636;23.198;2022-12-18T08:56:04;17.77;;;7.03;;
37205;SDS011;23099;42.636;23.198;2022-12-18T08:58:32;18.53;;;8.37;;
37205;SDS011;23099;42.636;23.198;2022-12-18T09:00:59;17.70;;;9.00;;
37205;SDS011;23099;42.636;23.198;2022-12-18T09:03:27;17.42;;;8.32;;
37205;SDS011;23099;42.636;23.198;2022-12-18T09:05:55;20.40;;;8.95;;
37205;SDS011;23099;42.636;23.198;2022-12-18T09:08:22;20.13;;;9.70;;
37205;SDS011;23099;42.636;23.198;2022-12-18T09:10:49;17.27;;;8.15;;
37205;SDS011;23099;42.636;23.198;2022-12-18T09:13:18;17.77;;;8.50;;
37205;SDS011;23099;42.636;23.198;2022-12-18T09:15:45;17.55;;;8.18;;
37205;SDS011;23099;42.636;23.198;2022-12-18T09:18:13;20.40;;;9.13;;
37205;SDS011;23099;42.636;23.198;2022-12-18T09:20:42;18.85;;;8.35;;
37205;SDS011;23099;42.636;23.198;2022-12-18T09:23:10;17.33;;;7.85;;
37205;SDS011;23099;42.636;23.198;2022-12-18T09:25:37;21.15;;;9.48;;
37205;SDS011;23099;42.636;23.198;2022-12-18T09:28:05;25.13;;;9.50;;
37205;SDS011;23099;42.636;23.198;2022-12-18T09:30:36;22.15;;;9.85;;
37205;SDS011;23099;42.636;23.198;2022-12-18T09:33:03;19.33;;;9.55;;
37205;SDS011;23099;42.636;23.198;2022-12-18T09:35:30;19.63;;;9.55;;
37205;SDS011;23099;42.636;23.198;2022-12-18T09:37:56;20.88;;;10.00;;
37205;SDS011;23099;42.636;23.198;2022-12-18T09:40:25;27.50;;;10.75;;
37205;SDS011;23099;42.636;23.198;2022-12-18T09:42:59;21.48;;;10.63;;
37205;SDS011;23099;42.636;23.198;2022-12-18T09:45:29;22.73;;;10.60;;
37205;SDS011;23099;42.636;23.198;2022-12-18T09:48:02;22.25;;;11.13;;
37205;SDS011;23099;42.636;23.198;2022-12-18T09:50:32;20.50;;;10.00;;
37205;SDS011;23099;42.636;23.198;2022-12-18T09:53:04;21.23;;;10.15;;
37205;SDS011;23099;42.636;23.198;2022-12-18T09:55:40;20.63;;;10.40;;
37205;SDS011;23099;42.636;23.198;2022-12-18T09:58:12;18.85;;;9.80;;
37205;SDS011;23099;42.636;23.198;2022-12-18T10:00:43;21.70;;;11.40;;
37205;SDS011;23099;42.636;23.198;2022-12-18T10:03:10;22.55;;;10.90;;
37205;SDS011;23099;42.636;23.198;2022-12-18T10:05:41;22.23;;;10.93;;
37205;SDS011;23099;42.636;23.198;2022-12-18T10:08:17;24.23;;;11.27;;
37205;SDS011;23099;42.636;23.198;2022-12-18T10:10:53;26.70;;;11.55;;
37205;SDS011;23099;42.636;23.198;2022-12-18T10:13:24;23.80;;;11.55;;
37205;SDS011;23099;42.636;23.198;2022-12-18T10:16:00;24.13;;;11.95;;
37205;SDS011;23099;42.636;23.198;2022-12-18T10:18:37;24.20;;;11.23;;
37205;SDS011;23099;42.636;23.198;2022-12-18T10:21:17;26.17;;;12.35;;
37205;SDS011;23099;42.636;23.198;2022-12-18T10:23:48;28.52;;;14.15;;
37205;SDS011;23099;42.636;23.198;2022-12-18T10:26:26;37.90;;;16.33;;
37205;SDS011;23099;42.636;23.198;2022-12-18T10:28:53;28.98;;;11.90;;
37205;SDS011;23099;42.636;23.198;2022-12-18T10:33:49;24.60;;;10.65;;
37205;SDS011;23099;42.636;23.198;2022-12-18T10:36:15;27.73;;;12.40;;
37205;SDS011;23099;42.636;23.198;2022-12-18T10:38:42;22.02;;;11.68;;
37205;SDS011;23099;42.636;23.198;2022-12-18T10:41:23;23.67;;;11.50;;
37205;SDS011;23099;42.636;23.198;2022-12-18T10:44:10;26.98;;;12.48;;
37205;SDS011;23099;42.636;23.198;2022-12-18T10:46:38;22.75;;;10.85;;
37205;SDS011;23099;42.636;23.198;2022-12-18T10:49:05;26.38;;;12.25;;
37205;SDS011;23099;42.636;23.198;2022-12-18T10:51:44;28.65;;;13.27;;
37205;SDS011;23099;42.636;23.198;2022-12-18T10:54:13;27.50;;;12.80;;
37205;SDS011;23099;42.636;23.198;2022-12-18T10:56:42;27.25;;;12.63;;
37205;SDS011;23099;42.636;23.198;2022-12-18T10:59:11;25.23;;;12.55;;
37205;SDS011;23099;42.636;23.198;2022-12-18T11:01:47;26.55;;;13.07;;
37205;SDS011;23099;42.636;23.198;2022-12-18T11:04:17;24.20;;;11.75;;
37205;SDS011;23099;42.636;23.198;2022-12-18T11:06:53;24.70;;;12.38;;
37205;SDS011;23099;42.636;23.198;2022-12-18T11:09:22;25.92;;;11.77;;
37205;SDS011;23099;42.636;23.198;2022-12-18T11:11:51;27.13;;;12.27;;
37205;SDS011;23099;42.636;23.198;2022-12-18T11:14:22;21.58;;;10.15;;
37205;SDS011;23099;42.636;23.198;2022-12-18T11:16:50;22.77;;;10.82;;
37205;SDS011;23099;42.636;23.198;2022-12-18T11:19:20;19.60;;;9.77;;
37205;SDS011;23099;42.636;23.198;2022-12-18T11:21:52;23.92;;;9.57;;
37205;SDS011;23099;42.636;23.198;2022-12-18T11:24:20;22.20;;;9.57;;
37205;SDS011;23099;42.636;23.198;2022-12-18T11:26:53;17.67;;;8.70;;
37205;SDS011;23099;42.636;23.198;2022-12-18T11:29:24;22.23;;;9.38;;
37205;SDS011;23099;42.636;23.198;2022-12-18T11:32:08;22.23;;;9.80;;
37205;SDS011;23099;42.636;23.198;2022-12-18T11:34:49;20.83;;;9.68;;
37205;SDS011;23099;42.636;23.198;2022-12-18T11:37:21;22.17;;;9.57;;
37205;SDS011;23099;42.636;23.198;2022-12-18T11:39:49;21.15;;;9.27;;
37205;SDS011;23099;42.636;23.198;2022-12-18T11:42:22;22.38;;;10.00;;
37205;SDS011;23099;42.636;23.198;2022-12-18T11:44:57;20.83;;;9.38;;
37205;SDS011;23099;42.636;23.198;2022-12-18T11:47:29;23.20;;;10.07;;
37205;SDS011;23099;42.636;23.198;2022-12-18T11:50:02;23.63;;;10.10;;
37205;SDS011;23099;42.636;23.198;2022-12-18T11:52:37;25.58;;;10.48;;
37205;SDS011;23099;42.636;23.198;2022-12-18T11:55:10;20.55;;;9.18;;
37205;SDS011;23099;42.636;23.198;2022-12-18T11:57:41;24.50;;;10.20;;
37205;SDS011;23099;42.636;23.198;2022-12-18T12:00:19;22.83;;;10.55;;
37205;SDS011;23099;42.636;23.198;2022-12-18T12:03:02;21.80;;;8.20;;
37205;SDS011;23099;42.636;23.198;2022-12-18T12:05:48;21.95;;;10.27;;
37205;SDS011;23099;42.636;23.198;2022-12-18T12:08:28;20.10;;;9.17;;
37205;SDS011;23099;42.636;23.198;2022-12-18T12:11:06;18.67;;;8.23;;
37205;SDS011;23099;42.636;23.198;2022-12-18T12:13:40;20.23;;;8.67;;
37205;SDS011;23099;42.636;23.198;2022-12-18T12:16:17;19.73;;;8.95;;
37205;SDS011;23099;42.636;23.198;2022-12-18T12:18:51;18.08;;;8.32;;
37205;SDS011;23099;42.636;23.198;2022-12-18T12:21:28;19.38;;;7.40;;
37205;SDS011;23099;42.636;23.198;2022-12-18T12:24:03;20.52;;;9.10;;
37205;SDS011;23099;42.636;23.198;2022-12-18T12:26:45;19.80;;;8.85;;
37205;SDS011;23099;42.636;23.198;2022-12-18T12:29:22;19.65;;;9.35;;
37205;SDS011;23099;42.636;23.198;2022-12-18T12:32:05;22.30;;;9.60;;
37205;SDS011;23099;42.636;23.198;2022-12-18T12:34:43;20.98;;;9.18;;
37205;SDS011;23099;42.636;23.198;2022-12-18T12:37:22;21.63;;;9.57;;
37205;SDS011;23099;42.636;23.198;2022-12-18T12:42:26;22.17;;;9.55;;
37205;SDS011;23099;42.636;23.198;2022-12-18T12:45:17;20.17;;;8.52;;
37205;SDS011;23099;42.636;23.198;2022-12-18T12:47:50;20.08;;;8.80;;
37205;SDS011;23099;42.636;23.198;2022-12-18T12:50:20;19.17;;;8.07;;
37205;SDS011;23099;42.636;23.198;2022-12-18T12:52:48;19.00;;;8.30;;
37205;SDS011;23099;42.636;23.198;2022-12-18T12:55:19;18.38;;;8.63;;
37205;SDS011;23099;42.636;23.198;2022-12-18T12:57:50;18.60;;;8.32;;
37205;SDS011;23099;42.636;23.198;2022-12-18T13:00:22;18.08;;;8.40;;
37205;SDS011;23099;42.636;23.198;2022-12-18T13:05:25;20.65;;;9.38;;
37205;SDS011;23099;42.636;23.198;2022-12-18T13:08:02;19.17;;;9.27;;
37205;SDS011;23099;42.636;23.198;2022-12-18T13:10:32;20.75;;;9.38;;
37205;SDS011;23099;42.636;23.198;2022-12-18T13:13:01;18.88;;;9.05;;
37205;SDS011;23099;42.636;23.198;2022-12-18T13:15:30;20.88;;;9.15;;
37205;SDS011;23099;42.636;23.198;2022-12-18T13:18:05;21.30;;;10.07;;
37205;SDS011;23099;42.636;23.198;2022-12-18T13:20:40;22.60;;;10.10;;
37205;SDS011;23099;42.636;23.198;2022-12-18T13:23:29;23.05;;;10.02;;
37205;SDS011;23099;42.636;23.198;2022-12-18T13:28:59;20.95;;;9.85;;
37205;SDS011;23099;42.636;23.198;2022-12-18T13:34:36;21.70;;;10.57;;
37205;SDS011;23099;42.636;23.198;2022-12-18T13:43:22;24.77;;;10.23;;
37205;SDS011;23099;42.636;23.198;2022-12-18T13:45:59;19.90;;;9.95;;
37205;SDS011;23099;42.636;23.198;2022-12-18T13:48:28;23.77;;;9.95;;
37205;SDS011;23099;42.636;23.198;2022-12-18T13:51:00;22.33;;;10.38;;
37205;SDS011;23099;42.636;23.198;2022-12-18T13:53:30;22.85;;;9.98;;
37205;SDS011;23099;42.636;23.198;2022-12-18T13:56:01;23.80;;;11.13;;
37205;SDS011;23099;42.636;23.198;2022-12-18T13:58:28;23.55;;;10.98;;
37205;SDS011;23099;42.636;23.198;2022-12-18T14:00:55;21.35;;;10.10;;
37205;SDS011;23099;42.636;23.198;2022-12-18T14:05:53;22.90;;;10.32;;
37205;SDS011;23099;42.636;23.198;2022-12-18T14:08:24;22.67;;;10.77;;
37205;SDS011;23099;42.636;23.198;2022-12-18T14:10:55;21.80;;;10.60;;
37205;SDS011;23099;42.636;23.198;2022-12-18T14:13:24;22.63;;;11.02;;
37205;SDS011;23099;42.636;23.198;2022-12-18T14:15:54;24.08;;;12.13;;
37205;SDS011;23099;42.636;23.198;2022-12-18T14:18:23;25.13;;;11.13;;
37205;SDS011;23099;42.636;23.198;2022-12-18T14:20:53;25.67;;;11.10;;
37205;SDS011;23099;42.636;23.198;2022-12-18T14:23:32;25.10;;;11.90;;
37205;SDS011;23099;42.636;23.198;2022-12-18T14:26:02;25.55;;;11.10;;
37205;SDS011;23099;42.636;23.198;2022-12-18T14:28:30;26.85;;;10.70;;
37205;SDS011;23099;42.636;23.198;2022-12-18T14:30:56;20.42;;;9.82;;
37205;SDS011;23099;42.636;23.198;2022-12-18T14:33:24;23.20;;;10.73;;
37205;SDS011;23099;42.636;23.198;2022-12-18T14:38:22;20.42;;;9.63;;
37205;SDS011;23099;42.636;23.198;2022-12-18T14:40:53;24.98;;;11.15;;
37205;SDS011;23099;42.636;23.198;2022-12-18T14:43:24;23.17;;;10.75;;
37205;SDS011;23099;42.636;23.198;2022-12-18T14:45:51;25.73;;;10.98;;
37205;SDS011;23099;42.636;23.198;2022-12-18T14:48:19;21.23;;;10.57;;
37205;SDS011;23099;42.636;23.198;2022-12-18T14:50:54;24.30;;;10.68;;
37205;SDS011;23099;42.636;23.198;2022-12-18T14:53:32;22.80;;;10.77;;
37205;SDS011;23099;42.636;23.198;2022-12-18T14:56:03;22.88;;;10.57;;
37205;SDS011;23099;42.636;23.198;2022-12-18T14:58:44;23.95;;;10.32;;
37205;SDS011;23099;42.636;23.198;2022-12-18T15:01:17;21.52;;;9.52;;
37205;SDS011;23099;42.636;23.198;2022-12-18T15:03:49;22.55;;;10.20;;
37205;SDS011;23099;42.636;23.198;2022-12-18T15:06:17;23.13;;;10.70;;
37205;SDS011;23099;42.636;23.198;2022-12-18T15:08:50;22.67;;;9.95;;
37205;SDS011;23099;42.636;23.198;2022-12-18T15:11:30;26.40;;;11.85;;
37205;SDS011;23099;42.636;23.198;2022-12-18T15:17:04;21.98;;;10.68;;
37205;SDS011;23099;42.636;23.198;2022-12-18T15:19:34;23.58;;;10.60;;